Time;durP1;ratioP1;P1;durP2;ratioP2;P2;SDS_P1;SDS_P2;PMS_P1;PMS_P2;Temp;Humidity;BMP_temperature;BMP_pressure;BME280_temperature;BME280_humidity;BME280_pressure;Samples;Min_cycle;Max_cycle;Signal;HPM_P1;HPM_P2
2022/09/09 00:01:34;;;;;;;11.45;8.15;;;14.50;99.90;;;;;;5041171;28;20049;-75
2022/09/09 00:04:12;;;;;;;11.93;7.97;;;14.50;99.90;;;;;;5043352;28;20044;-75
2022/09/09 00:06:57;;;;;;;8.70;6.32;;;14.20;99.90;;;;;;5027253;28;20427;-76
2022/09/09 00:09:28;;;;;;;10.90;8.13;;;14.30;99.90;;;;;;5044638;28;20064;-76
2022/09/09 00:12:36;;;;;;;12.43;7.93;;;14.40;99.90;;;;;;5042420;28;20037;-76
2022/09/09 00:15:12;;;;;;;14.10;9.70;;;14.50;99.90;;;;;;4995510;28;20059;-75
2022/09/09 00:18:00;;;;;;;10.88;7.55;;;14.30;99.90;;;;;;5043921;28;20041;-76
2022/09/09 00:20:43;;;;;;;16.27;7.93;;;14.30;99.90;;;;;;5042829;28;20056;-76
2022/09/09 00:23:19;;;;;;;12.90;7.70;;;14.40;99.90;;;;;;5041245;28;20045;-75
2022/09/09 00:25:51;;;;;;;10.38;7.72;;;14.30;99.90;;;;;;5042063;28;20049;-76
2022/09/09 00:28:20;;;;;;;15.07;9.90;;;14.30;99.90;;;;;;5039967;28;20127;-75
2022/09/09 00:30:49;;;;;;;13.20;8.73;;;14.40;99.90;;;;;;5040683;28;20036;-75
2022/09/09 00:33:21;;;;;;;10.03;8.10;;;14.20;99.90;;;;;;5042817;28;20380;-75
2022/09/09 00:35:58;;;;;;;13.82;7.78;;;14.20;99.90;;;;;;5026684;28;20036;-75
2022/09/09 00:38:44;;;;;;;8.60;6.95;;;14.10;99.90;;;;;;5042742;28;20037;-75
2022/09/09 00:41:32;;;;;;;10.38;8.63;;;14.30;99.90;;;;;;5043629;28;20044;-74
2022/09/09 00:44:15;;;;;;;11.50;7.43;;;14.10;99.90;;;;;;5042780;28;20060;-74
2022/09/09 00:47:13;;;;;;;15.63;7.88;;;14.20;99.90;;;;;;5037102;28;20380;-74
2022/09/09 00:50:03;;;;;;;21.20;8.25;;;14.20;99.90;;;;;;5013941;28;20045;-75
2022/09/09 00:52:49;;;;;;;10.32;7.70;;;14.10;99.90;;;;;;5025733;28;20135;-76
2022/09/09 00:55:18;;;;;;;13.45;7.45;;;14.00;99.90;;;;;;5029551;28;20419;-75
2022/09/09 00:57:46;;;;;;;10.93;6.82;;;14.10;99.90;;;;;;5041567;28;20519;-75
2022/09/09 01:00:18;;;;;;;11.57;7.18;;;14.10;99.90;;;;;;5024739;28;20120;-75
2022/09/09 01:02:53;;;;;;;14.52;9.05;;;14.00;99.90;;;;;;5043103;28;20053;-76
2022/09/09 01:05:38;;;;;;;9.55;7.05;;;14.00;99.90;;;;;;5042455;28;20048;-75
2022/09/09 01:08:11;;;;;;;8.93;6.85;;;14.20;99.90;;;;;;5039549;28;20747;-76
2022/09/09 01:10:53;;;;;;;20.77;8.32;;;14.00;99.90;;;;;;5025553;28;20037;-75
2022/09/09 01:13:30;;;;;;;7.40;6.10;;;14.10;99.90;;;;;;5025972;28;20045;-77
2022/09/09 01:15:59;;;;;;;9.32;6.25;;;14.20;99.90;;;;;;5044627;28;20045;-75
2022/09/09 01:18:34;;;;;;;9.82;6.20;;;13.90;99.90;;;;;;5044198;28;20523;-76
2022/09/09 01:21:23;;;;;;;8.93;5.40;;;14.10;99.90;;;;;;5041105;28;20041;-76
2022/09/09 01:24:13;;;;;;;9.35;6.07;;;14.00;99.90;;;;;;5040927;28;20546;-76
2022/09/09 01:26:40;;;;;;;11.00;5.72;;;14.10;99.90;;;;;;5043115;28;20053;-76
2022/09/09 01:29:15;;;;;;;7.18;5.28;;;14.00;99.90;;;;;;5041182;28;20124;-76
2022/09/09 01:31:56;;;;;;;11.32;5.93;;;13.90;99.90;;;;;;5042597;28;20467;-76
2022/09/09 01:34:23;;;;;;;9.75;5.60;;;13.90;99.90;;;;;;5040130;28;20045;-76
2022/09/09 01:37:09;;;;;;;6.60;5.65;;;14.10;99.90;;;;;;5041083;28;20041;-75
2022/09/09 01:39:37;;;;;;;8.65;5.32;;;14.10;99.90;;;;;;5044540;28;20045;-75
2022/09/09 01:42:06;;;;;;;7.90;5.80;;;14.00;99.90;;;;;;5040469;28;20048;-76
2022/09/09 01:44:32;;;;;;;9.57;6.97;;;13.90;99.90;;;;;;5046421;28;20049;-76
2022/09/09 01:46:58;;;;;;;12.43;6.10;;;14.10;99.90;;;;;;5044062;28;20574;-76
2022/09/09 01:49:24;;;;;;;12.95;6.70;;;14.10;99.90;;;;;;5047715;28;20132;-76
2022/09/09 01:51:53;;;;;;;8.65;6.22;;;14.00;99.90;;;;;;5030366;28;20443;-76
2022/09/09 01:54:26;;;;;;;7.55;5.78;;;14.10;99.90;;;;;;5045775;28;20036;-76
2022/09/09 01:57:10;;;;;;;7.10;6.40;;;14.10;99.90;;;;;;5046078;28;20503;-75
2022/09/09 02:00:11;;;;;;;12.98;7.32;;;14.20;99.90;;;;;;5044480;28;20040;-76
2022/09/09 02:03:08;;;;;;;11.18;7.05;;;14.10;99.90;;;;;;5027501;28;20064;-75
2022/09/09 02:05:45;;;;;;;15.82;6.95;;;14.20;99.90;;;;;;5046340;28;20380;-76
2022/09/09 02:08:23;;;;;;;9.73;6.47;;;14.00;99.90;;;;;;5047021;28;20056;-77
2022/09/09 02:10:54;;;;;;;7.75;6.78;;;14.00;99.90;;;;;;5041303;28;20040;-76
2022/09/09 02:13:22;;;;;;;9.35;8.13;;;14.20;99.90;;;;;;5044223;28;20056;-76
2022/09/09 02:15:52;;;;;;;10.93;7.43;;;14.10;99.90;;;;;;5045661;28;20029;-76
2022/09/09 02:18:25;;;;;;;16.15;8.45;;;14.10;99.90;;;;;;5045710;28;20052;-76
2022/09/09 02:20:53;;;;;;;8.40;6.82;;;14.20;99.90;;;;;;5047516;28;20403;-76
2022/09/09 02:23:20;;;;;;;19.83;9.30;;;14.00;99.90;;;;;;5044927;28;20043;-76
2022/09/09 02:25:47;;;;;;;10.63;7.50;;;14.10;99.90;;;;;;5047227;28;20037;-76
2022/09/09 02:28:15;;;;;;;10.48;7.97;;;13.90;99.90;;;;;;5045065;28;20041;-76
2022/09/09 02:30:46;;;;;;;15.35;8.90;;;14.10;99.90;;;;;;5045040;28;20045;-76
2022/09/09 02:33:14;;;;;;;11.98;8.00;;;14.00;99.90;;;;;;5047006;28;20037;-76
2022/09/09 02:35:43;;;;;;;8.68;7.78;;;14.00;99.90;;;;;;5043125;28;20820;-75
2022/09/09 02:38:13;;;;;;;14.02;8.80;;;13.90;99.90;;;;;;5045952;28;20155;-75
2022/09/09 02:40:38;;;;;;;17.88;9.32;;;13.90;99.90;;;;;;5047039;28;20060;-76
2022/09/09 02:43:06;;;;;;;17.40;9.15;;;14.00;99.90;;;;;;5045707;28;20037;-75
2022/09/09 02:46:07;;;;;;;10.80;9.25;;;13.90;99.90;;;;;;5044347;28;20071;-76
2022/09/09 02:48:45;;;;;;;15.82;10.95;;;14.10;99.90;;;;;;4987553;28;20046;-75
2022/09/09 02:51:34;;;;;;;9.80;8.77;;;14.00;99.90;;;;;;5038806;28;20446;-76
2022/09/09 02:54:33;;;;;;;15.63;9.57;;;13.80;99.90;;;;;;5038100;28;20049;-76
2022/09/09 02:57:11;;;;;;;14.80;10.13;;;14.00;99.90;;;;;;5030249;28;20483;-76
2022/09/09 02:59:38;;;;;;;29.08;11.15;;;14.00;99.90;;;;;;5044216;28;20368;-75
2022/09/09 03:02:04;;;;;;;16.20;11.35;;;13.80;99.90;;;;;;5045284;28;20460;-75
2022/09/09 03:04:31;;;;;;;11.02;9.63;;;14.00;99.90;;;;;;5045605;28;20072;-75
2022/09/09 03:06:58;;;;;;;13.48;10.63;;;14.00;99.90;;;;;;5046066;28;20377;-76
2022/09/09 03:09:24;;;;;;;12.45;10.80;;;14.00;99.90;;;;;;5044576;28;20117;-75
2022/09/09 03:11:50;;;;;;;11.35;9.98;;;14.10;99.90;;;;;;5044405;28;20399;-75
2022/09/09 03:14:16;;;;;;;16.73;11.77;;;14.00;99.90;;;;;;5044914;28;20858;-75
2022/09/09 03:16:42;;;;;;;14.27;9.82;;;14.10;99.90;;;;;;5044707;28;20097;-76
2022/09/09 03:19:09;;;;;;;20.48;11.60;;;13.90;99.90;;;;;;5042635;28;20352;-76
2022/09/09 03:21:35;;;;;;;14.98;11.30;;;14.20;99.90;;;;;;5042529;28;20045;-75
2022/09/09 03:24:03;;;;;;;21.00;11.98;;;14.20;99.90;;;;;;5044180;28;20606;-76
2022/09/09 03:26:30;;;;;;;19.30;11.68;;;14.20;99.90;;;;;;5045703;28;20037;-76
2022/09/09 03:28:56;;;;;;;16.23;12.15;;;14.20;99.90;;;;;;5042517;28;20124;-76
2022/09/09 03:31:21;;;;;;;15.00;11.23;;;14.30;99.90;;;;;;5044169;28;20076;-76
2022/09/09 03:33:47;;;;;;;16.27;12.23;;;14.10;99.90;;;;;;5043650;28;20079;-76
2022/09/09 03:36:14;;;;;;;17.38;11.98;;;14.30;99.90;;;;;;5043400;28;20141;-76
2022/09/09 03:38:41;;;;;;;16.02;11.93;;;14.20;99.90;;;;;;5044994;28;20415;-76
2022/09/09 03:41:07;;;;;;;16.73;10.13;;;14.10;99.90;;;;;;5044772;28;20045;-76
2022/09/09 03:43:33;;;;;;;14.05;10.57;;;14.40;99.90;;;;;;5043859;28;20501;-76
2022/09/09 03:45:59;;;;;;;14.88;11.98;;;14.10;99.90;;;;;;5044186;28;20044;-76
2022/09/09 03:48:27;;;;;;;15.75;11.25;;;14.30;99.90;;;;;;5040710;28;20040;-76
2022/09/09 03:50:54;;;;;;;17.30;12.10;;;14.10;99.90;;;;;;5044593;28;20127;-76
2022/09/09 03:53:22;;;;;;;14.65;10.20;;;14.40;99.90;;;;;;5043593;28;20045;-75
2022/09/09 03:55:59;;;;;;;14.02;11.02;;;14.20;99.90;;;;;;5045829;28;20410;-76
2022/09/09 03:58:26;;;;;;;17.00;9.98;;;14.10;99.90;;;;;;5041932;28;20124;-76
2022/09/09 04:00:56;;;;;;;15.65;10.57;;;14.20;99.90;;;;;;5043852;28;20037;-76
2022/09/09 04:03:24;;;;;;;13.05;10.13;;;14.20;99.90;;;;;;5044383;28;20049;-75
2022/09/09 04:05:51;;;;;;;19.60;11.65;;;14.10;99.90;;;;;;5033429;28;20049;-75
2022/09/09 04:08:18;;;;;;;18.20;10.65;;;14.50;99.90;;;;;;5043254;28;20052;-75
2022/09/09 04:10:46;;;;;;;16.70;10.57;;;14.50;99.90;;;;;;5044845;28;20052;-75
2022/09/09 04:13:14;;;;;;;13.18;9.48;;;14.10;99.90;;;;;;5041435;28;20167;-76
2022/09/09 04:15:40;;;;;;;12.73;10.75;;;14.30;99.90;;;;;;5044257;28;20064;-75
2022/09/09 04:18:06;;;;;;;10.93;9.80;;;14.10;99.90;;;;;;5042368;28;20047;-76
2022/09/09 04:20:32;;;;;;;14.65;9.38;;;14.10;99.90;;;;;;5044576;28;20041;-76
2022/09/09 04:22:58;;;;;;;9.75;7.93;;;14.10;99.90;;;;;;5045300;28;20045;-76
2022/09/09 04:25:24;;;;;;;16.13;9.73;;;14.30;99.90;;;;;;5043285;28;20758;-76
2022/09/09 04:27:57;;;;;;;12.60;10.05;;;14.40;99.90;;;;;;5041540;28;20049;-75
2022/09/09 04:30:24;;;;;;;14.40;9.25;;;14.20;99.90;;;;;;5043508;28;20059;-76
2022/09/09 04:32:50;;;;;;;12.32;9.43;;;14.20;99.90;;;;;;5043462;28;20522;-76
2022/09/09 04:35:16;;;;;;;12.90;10.00;;;14.40;99.90;;;;;;5043027;28;20041;-76
2022/09/09 04:37:42;;;;;;;14.95;10.95;;;14.40;99.90;;;;;;5042660;28;20438;-76
2022/09/09 04:40:11;;;;;;;14.30;9.27;;;14.30;99.90;;;;;;5043589;28;20052;-76
2022/09/09 04:42:38;;;;;;;14.15;10.20;;;14.40;99.90;;;;;;5044214;28;20086;-75
2022/09/09 04:45:06;;;;;;;16.10;9.48;;;14.10;99.90;;;;;;5043060;28;20091;-74
2022/09/09 04:47:32;;;;;;;14.18;10.30;;;14.10;99.90;;;;;;5039468;28;20055;-74
2022/09/09 04:49:58;;;;;;;15.80;10.93;;;14.30;99.90;;;;;;5042048;28;20041;-74
2022/09/09 04:52:23;;;;;;;17.23;9.35;;;14.10;99.90;;;;;;5044211;28;20049;-74
2022/09/09 04:54:49;;;;;;;15.65;11.68;;;14.30;99.90;;;;;;5041272;28;20048;-75
2022/09/09 04:57:15;;;;;;;12.73;10.45;;;14.20;99.90;;;;;;5041732;28;20087;-73
2022/09/09 04:59:40;;;;;;;16.05;11.40;;;14.40;99.90;;;;;;5043010;28;20274;-79
2022/09/09 05:02:06;;;;;;;12.25;10.43;;;14.40;99.90;;;;;;5046256;28;20164;-78
2022/09/09 05:04:32;;;;;;;14.70;11.88;;;14.20;99.90;;;;;;5044881;28;20045;-74
2022/09/09 05:06:59;;;;;;;16.73;11.35;;;14.40;99.90;;;;;;5043026;28;20041;-76
2022/09/09 05:09:24;;;;;;;14.23;10.75;;;14.20;99.90;;;;;;5040232;28;20135;-75
2022/09/09 05:11:51;;;;;;;14.70;11.90;;;14.40;99.90;;;;;;5044206;28;20081;-74
2022/09/09 05:14:17;;;;;;;13.07;10.38;;;14.30;99.90;;;;;;5044357;28;20393;-75
2022/09/09 05:16:45;;;;;;;18.35;10.93;;;14.40;99.90;;;;;;5061165;28;20549;-75
2022/09/09 05:19:11;;;;;;;14.77;10.38;;;14.40;99.90;;;;;;5046587;28;20067;-75
2022/09/09 05:21:37;;;;;;;22.67;11.50;;;14.20;99.90;;;;;;5044799;28;20060;-75
2022/09/09 05:24:03;;;;;;;18.08;10.80;;;14.20;99.90;;;;;;5050087;28;20037;-76
2022/09/09 05:26:29;;;;;;;11.73;9.52;;;14.30;99.90;;;;;;5058589;28;20080;-75
2022/09/09 05:28:55;;;;;;;15.68;10.13;;;14.30;99.90;;;;;;5050393;28;20052;-74
2022/09/09 05:31:21;;;;;;;14.27;10.43;;;14.50;99.90;;;;;;5047784;28;20451;-75
2022/09/09 05:33:49;;;;;;;12.85;10.35;;;14.40;99.90;;;;;;5048048;28;20045;-74
2022/09/09 05:36:17;;;;;;;12.13;10.00;;;14.20;99.90;;;;;;5048095;28;20048;-77
2022/09/09 05:38:43;;;;;;;12.98;10.90;;;14.40;99.90;;;;;;5049917;28;20052;-76
2022/09/09 05:41:15;;;;;;;13.80;9.57;;;14.30;99.90;;;;;;5048083;28;20529;-76
2022/09/09 05:43:42;;;;;;;14.65;9.73;;;14.20;99.90;;;;;;5058862;28;20048;-75
2022/09/09 05:46:18;;;;;;;18.55;10.00;;;14.10;99.90;;;;;;5057235;28;20056;-76
2022/09/09 05:48:46;;;;;;;13.43;11.07;;;14.10;99.90;;;;;;5046218;28;20041;-76
2022/09/09 05:51:15;;;;;;;14.70;9.20;;;14.40;99.90;;;;;;5038698;28;20064;-75
2022/09/09 05:53:41;;;;;;;14.03;10.20;;;14.40;99.90;;;;;;5029553;28;20053;-75
2022/09/09 05:56:14;;;;;;;14.73;10.10;;;14.20;99.90;;;;;;5036663;28;20043;-75
2022/09/09 05:58:40;;;;;;;17.17;9.40;;;14.20;99.90;;;;;;5044902;28;20060;-76
2022/09/09 06:01:08;;;;;;;13.52;9.35;;;14.50;99.90;;;;;;5046970;28;20041;-76
2022/09/09 06:03:38;;;;;;;11.02;9.57;;;14.50;99.90;;;;;;5049270;28;20044;-75
2022/09/09 06:06:05;;;;;;;;;;;14.50;99.90;;;;;;5047541;28;20098;-75
2022/09/09 06:08:32;;;;;;;16.33;10.23;;;14.60;99.90;;;;;;5047406;28;19920;-75
2022/09/09 06:11:02;;;;;;;14.73;10.40;;;14.40;99.90;;;;;;5046344;28;20040;-75
2022/09/09 06:13:29;;;;;;;11.38;9.98;;;14.60;99.90;;;;;;5047583;28;20048;-75
2022/09/09 06:15:54;;;;;;;25.27;13.15;;;14.50;99.90;;;;;;5046572;28;20045;-75
2022/09/09 06:18:20;;;;;;;17.80;11.85;;;14.60;99.90;;;;;;5044671;28;20076;-75
2022/09/09 06:20:56;;;;;;;12.23;10.95;;;14.40;99.90;;;;;;5044455;28;20045;-75
2022/09/09 06:23:22;;;;;;;15.95;10.25;;;14.50;99.90;;;;;;5045576;28;20041;-77
2022/09/09 06:25:48;;;;;;;13.15;9.77;;;14.50;99.90;;;;;;5045481;28;20045;-75
2022/09/09 06:28:15;;;;;;;15.27;10.68;;;14.30;99.90;;;;;;5044572;28;20404;-73
2022/09/09 06:30:41;;;;;;;14.07;10.43;;;14.50;99.90;;;;;;5046371;28;20454;-73
2022/09/09 06:33:07;;;;;;;14.75;10.85;;;14.40;99.90;;;;;;5047084;28;20037;-76
2022/09/09 06:35:32;;;;;;;19.55;11.60;;;14.30;99.90;;;;;;5047316;28;20048;-76
2022/09/09 06:37:58;;;;;;;17.58;11.45;;;14.60;99.90;;;;;;5046641;28;20368;-76
2022/09/09 06:40:24;;;;;;;12.15;9.18;;;14.30;99.90;;;;;;5048561;28;20061;-77
2022/09/09 06:42:50;;;;;;;12.60;9.75;;;14.50;99.90;;;;;;5047008;28;20426;-76
2022/09/09 06:45:17;;;;;;;11.73;10.05;;;14.40;99.90;;;;;;5048229;28;20123;-76
2022/09/09 06:47:43;;;;;;;13.57;9.70;;;14.60;99.90;;;;;;5045236;28;20048;-75
2022/09/09 06:50:10;;;;;;;11.25;8.95;;;14.60;99.90;;;;;;5047140;28;20038;-77
2022/09/09 06:52:36;;;;;;;9.85;8.70;;;14.40;99.90;;;;;;5047335;28;20041;-78
2022/09/09 06:55:03;;;;;;;13.15;8.40;;;14.50;99.90;;;;;;5045789;28;20601;-77
2022/09/09 06:57:28;;;;;;;12.93;9.15;;;14.70;99.90;;;;;;5046171;28;20120;-78
2022/09/09 06:59:54;;;;;;;12.25;8.73;;;14.70;99.90;;;;;;5043847;28;20202;-78
2022/09/09 07:02:20;;;;;;;10.00;8.50;;;14.50;99.90;;;;;;5045822;28;20037;-79
2022/09/09 07:04:45;;;;;;;12.82;8.75;;;14.70;99.90;;;;;;5042556;28;20518;-78
2022/09/09 07:07:13;;;;;;;12.05;8.60;;;14.60;99.90;;;;;;5042484;28;20120;-78
2022/09/09 07:09:42;;;;;;;13.82;8.25;;;14.60;99.90;;;;;;5041104;28;20128;-78
2022/09/09 07:12:07;;;;;;;8.52;7.18;;;14.70;99.90;;;;;;5046498;28;20120;-78
2022/09/09 07:14:35;;;;;;;8.82;6.72;;;14.90;99.90;;;;;;5046488;28;20076;-78
2022/09/09 07:17:01;;;;;;;7.30;6.60;;;15.00;99.90;;;;;;5045657;28;20084;-77
2022/09/09 07:19:27;;;;;;;8.55;6.88;;;14.70;99.90;;;;;;5044721;28;20068;-78
2022/09/09 07:21:52;;;;;;;10.48;7.75;;;14.90;99.90;;;;;;5045742;28;20044;-78
2022/09/09 07:24:18;;;;;;;11.80;7.80;;;14.90;99.90;;;;;;5046655;28;20048;-76
2022/09/09 07:26:44;;;;;;;8.48;7.55;;;14.90;99.90;;;;;;5050597;28;20098;-76
2022/09/09 07:29:13;;;;;;;8.75;6.32;;;15.00;99.90;;;;;;5043018;28;20064;-77
2022/09/09 07:31:39;;;;;;;8.23;6.93;;;14.80;99.90;;;;;;5047223;28;20550;-77
2022/09/09 07:34:05;;;;;;;9.85;6.75;;;15.10;99.90;;;;;;5044918;28;20033;-78
2022/09/09 07:36:41;;;;;;;8.70;6.68;;;14.90;99.90;;;;;;5043088;28;20045;-77
2022/09/09 07:39:10;;;;;;;10.07;7.50;;;15.20;99.90;;;;;;5045841;28;20453;-76
2022/09/09 07:41:40;;;;;;;7.75;6.93;;;15.10;99.90;;;;;;5046358;28;20037;-78
2022/09/09 07:44:08;;;;;;;10.57;6.85;;;15.20;99.90;;;;;;5044790;28;20044;-77
2022/09/09 07:46:35;;;;;;;14.88;8.35;;;15.40;99.90;;;;;;5045950;28;20037;-77
2022/09/09 07:49:02;;;;;;;8.88;5.28;;;15.30;99.90;;;;;;5045130;28;20469;-78
2022/09/09 07:51:48;;;;;;;12.73;7.30;;;15.40;99.90;;;;;;5045662;28;20538;-78
2022/09/09 07:54:16;;;;;;;12.40;6.00;;;15.40;99.90;;;;;;5041890;28;20307;-78
2022/09/09 07:56:42;;;;;;;10.13;5.35;;;15.50;99.90;;;;;;5028279;28;20037;-79
2022/09/09 07:59:08;;;;;;;10.50;6.45;;;15.60;99.90;;;;;;5052702;28;20411;-78
2022/09/09 08:01:46;;;;;;;6.65;5.95;;;15.50;99.90;;;;;;5065588;28;20044;-78
2022/09/09 08:04:17;;;;;;;11.18;6.85;;;15.60;99.90;;;;;;5045316;28;20434;-79
2022/09/09 08:06:55;;;;;;;6.32;5.68;;;15.70;99.90;;;;;;5041029;28;20045;-78
2022/09/09 08:09:24;;;;;;;12.45;5.57;;;15.70;99.90;;;;;;5045806;28;20040;-79
2022/09/09 08:11:50;;;;;;;11.75;6.20;;;15.70;99.90;;;;;;5044784;28;20506;-77
2022/09/09 08:14:16;;;;;;;7.50;6.50;;;16.10;99.90;;;;;;5045525;28;20096;-76
2022/09/09 08:16:45;;;;;;;11.23;7.18;;;16.20;99.90;;;;;;5030020;28;20048;-78
2022/09/09 08:19:11;;;;;;;13.98;6.88;;;16.40;99.90;;;;;;5046088;28;20086;-77
2022/09/09 08:21:39;;;;;;;11.63;5.32;;;16.40;99.90;;;;;;5043130;28;20338;-76
2022/09/09 08:24:07;;;;;;;7.85;5.78;;;16.50;99.90;;;;;;5046173;28;20044;-77
2022/09/09 08:26:36;;;;;;;11.55;5.32;;;16.30;99.90;;;;;;5042890;28;20077;-77
2022/09/09 08:29:04;;;;;;;10.73;5.80;;;16.40;99.90;;;;;;5045355;28;20032;-77
2022/09/09 08:31:37;;;;;;;10.05;5.53;;;16.30;99.90;;;;;;5038240;28;20083;-78
2022/09/09 08:34:04;;;;;;;10.65;5.95;;;16.40;99.90;;;;;;5041673;28;20375;-80
2022/09/09 08:36:33;;;;;;;9.40;6.00;;;16.30;99.90;;;;;;5042540;28;20037;-79
2022/09/09 08:38:59;;;;;;;8.18;5.55;;;16.00;99.90;;;;;;5043968;28;20136;-78
2022/09/09 08:41:53;;;;;;;10.30;5.80;;;16.20;99.90;;;;;;5047918;28;20037;-77
2022/09/09 08:44:22;;;;;;;21.95;7.32;;;16.20;99.90;;;;;;5047662;28;20495;-79
2022/09/09 08:46:58;;;;;;;13.27;6.18;;;16.40;99.90;;;;;;5045331;28;20546;-77
2022/09/09 08:49:55;;;;;;;7.57;6.35;;;16.50;99.90;;;;;;5044675;28;20172;-78
2022/09/09 08:52:38;;;;;;;10.90;5.90;;;16.70;99.90;;;;;;5049744;28;20519;-77
2022/09/09 08:55:28;;;;;;;13.13;5.00;;;17.00;99.90;;;;;;5047303;28;20373;-78
2022/09/09 08:57:57;;;;;;;5.93;4.50;;;16.90;99.90;;;;;;5045456;28;20083;-79
2022/09/09 09:00:29;;;;;;;8.15;4.35;;;17.10;99.90;;;;;;5042641;28;20303;-77
2022/09/09 09:03:05;;;;;;;6.70;3.72;;;17.00;99.90;;;;;;5038744;28;20079;-77
2022/09/09 09:06:01;;;;;;;6.85;3.80;;;17.00;99.90;;;;;;5043510;28;20045;-75
2022/09/09 09:08:30;;;;;;;8.68;4.22;;;17.30;99.90;;;;;;5043994;28;20226;-77
2022/09/09 09:11:00;;;;;;;7.55;3.45;;;17.20;99.90;;;;;;5045660;28;20117;-77
2022/09/09 09:13:49;;;;;;;7.25;3.47;;;17.50;99.90;;;;;;5042057;28;20049;-77
2022/09/09 09:16:22;;;;;;;9.70;3.92;;;17.40;99.90;;;;;;5045026;28;20089;-77
2022/09/09 09:18:48;;;;;;;6.75;3.15;;;17.60;99.90;;;;;;5045034;28;20069;-77
2022/09/09 09:21:41;;;;;;;9.77;4.75;;;17.60;99.90;;;;;;5045111;28;20069;-77
2022/09/09 09:24:37;;;;;;;15.57;4.18;;;17.60;99.90;;;;;;5041405;28;20415;-77
2022/09/09 09:27:36;;;;;;;7.30;3.70;;;17.40;99.90;;;;;;5026392;28;20080;-75
2022/09/09 09:30:20;;;;;;;8.07;3.88;;;17.30;99.90;;;;;;5040662;28;20041;-77
2022/09/09 09:33:11;;;;;;;15.07;4.05;;;17.40;99.90;;;;;;5043524;28;20037;-76
2022/09/09 09:35:36;;;;;;;13.13;5.82;;;17.50;99.90;;;;;;5027525;28;20076;-77
2022/09/09 09:38:16;;;;;;;6.82;3.53;;;17.70;99.90;;;;;;5045207;28;20451;-76
2022/09/09 09:40:57;;;;;;;10.13;3.15;;;17.50;99.90;;;;;;5044304;28;20055;-76
2022/09/09 09:43:32;;;;;;;12.82;5.32;;;17.60;99.90;;;;;;5025540;28;20090;-78
2022/09/09 09:45:58;;;;;;;8.85;4.28;;;17.70;99.90;;;;;;5045126;28;20051;-78
2022/09/09 09:48:26;;;;;;;6.75;2.38;;;17.80;99.90;;;;;;5043270;28;20549;-78
2022/09/09 09:50:54;;;;;;;8.40;3.28;;;18.00;99.90;;;;;;5044675;28;20068;-78
2022/09/09 09:53:29;;;;;;;8.35;3.08;;;17.90;99.90;;;;;;5045633;28;20045;-78
2022/09/09 09:55:56;;;;;;;10.88;3.70;;;18.00;99.90;;;;;;5026049;28;20045;-78
2022/09/09 09:58:24;;;;;;;7.60;2.92;;;18.00;99.90;;;;;;5040784;28;20052;-77
2022/09/09 10:00:52;;;;;;;10.43;3.08;;;17.90;99.90;;;;;;5041326;28;20053;-78
2022/09/09 10:03:31;;;;;;;7.32;2.60;;;17.70;99.90;;;;;;5045465;28;20041;-78
2022/09/09 10:05:57;;;;;;;9.80;3.28;;;17.80;99.90;;;;;;5048110;28;20044;-79
2022/09/09 10:08:27;;;;;;;6.45;2.17;;;17.90;99.90;;;;;;5048661;28;20037;-78
2022/09/09 10:11:06;;;;;;;9.95;3.28;;;18.00;99.90;;;;;;5046783;28;20409;-79
2022/09/09 10:13:36;;;;;;;7.57;2.13;;;18.20;99.90;;;;;;5047300;28;20044;-78
2022/09/09 10:16:26;;;;;;;9.03;2.13;;;18.00;99.90;;;;;;5047736;28;20394;-75
2022/09/09 10:18:59;;;;;;;6.45;1.67;;;17.90;99.90;;;;;;5046938;28;20049;-77
2022/09/09 10:21:44;;;;;;;6.15;2.25;;;17.90;99.90;;;;;;5046400;28;20098;-77
2022/09/09 10:24:22;;;;;;;11.70;2.80;;;17.90;99.90;;;;;;5047362;28;20377;-79
2022/09/09 10:27:00;;;;;;;6.82;1.85;;;17.90;99.90;;;;;;5045355;28;20109;-78
2022/09/09 10:29:44;;;;;;;7.15;2.83;;;17.90;99.90;;;;;;5046047;28;20080;-78
2022/09/09 10:32:31;;;;;;;9.10;2.53;;;17.80;99.90;;;;;;5047862;28;20056;-78
2022/09/09 10:35:08;;;;;;;3.65;1.80;;;17.70;99.90;;;;;;5029745;28;20041;-78
2022/09/09 10:37:54;;;;;;;8.07;1.95;;;17.80;99.90;;;;;;5046955;28;20438;-78
2022/09/09 10:40:34;;;;;;;5.53;2.10;;;17.80;99.90;;;;;;5044706;28;20043;-77
2022/09/09 10:43:44;;;;;;;8.60;2.55;;;17.90;99.90;;;;;;5045196;28;20041;-77
2022/09/09 10:46:24;;;;;;;7.40;3.20;;;18.00;99.90;;;;;;5014301;28;20044;-77
2022/09/09 10:49:29;;;;;;;9.98;2.63;;;18.00;99.90;;;;;;5047959;28;20040;-77
2022/09/09 10:52:05;;;;;;;10.70;2.15;;;18.00;99.90;;;;;;5047193;28;20465;-77
2022/09/09 10:55:15;;;;;;;8.38;2.90;;;18.30;99.90;;;;;;5043092;28;20045;-77
2022/09/09 10:57:48;;;;;;;;;;;18.20;99.90;;;;;;5046812;28;20049;-77
2022/09/09 11:00:19;;;;;;;6.72;2.15;;;18.30;99.90;;;;;;5047190;28;19921;-77
2022/09/09 11:02:55;;;;;;;10.15;3.67;;;18.40;99.90;;;;;;5045294;28;20080;-77
2022/09/09 11:05:33;;;;;;;5.47;1.95;;;18.40;99.90;;;;;;5029114;28;20049;-78
2022/09/09 11:08:22;;;;;;;8.32;1.95;;;18.50;99.90;;;;;;5045126;28;20037;-78
2022/09/09 11:11:16;;;;;;;3.22;1.48;;;18.50;99.90;;;;;;5027308;28;20038;-78
2022/09/09 11:13:51;;;;;;;6.75;2.88;;;18.60;99.90;;;;;;5026516;28;20149;-78
2022/09/09 11:16:35;;;;;;;6.40;1.55;;;18.90;99.90;;;;;;5031264;28;20067;-78
2022/09/09 11:19:16;;;;;;;6.30;1.35;;;18.80;99.90;;;;;;5046650;28;20045;-77
2022/09/09 11:21:47;;;;;;;6.95;1.65;;;18.50;99.90;;;;;;5046639;28;20037;-78
2022/09/09 11:24:22;;;;;;;4.45;1.02;;;18.50;99.90;;;;;;5046074;28;20083;-74
2022/09/09 11:27:12;;;;;;;14.20;2.67;;;18.30;99.90;;;;;;5040232;28;20052;-74
2022/09/09 11:29:47;;;;;;;8.60;2.60;;;17.80;99.90;;;;;;5044812;28;20048;-80
2022/09/09 11:32:44;;;;;;;11.68;2.67;;;17.60;99.90;;;;;;5047327;28;20052;-79
2022/09/09 11:35:37;;;;;;;9.45;2.10;;;17.50;99.90;;;;;;5027468;28;20038;-79
2022/09/09 11:38:11;;;;;;;7.53;2.13;;;17.50;99.90;;;;;;5026967;28;20041;-81
2022/09/09 11:40:37;;;;;;;6.85;2.38;;;17.40;99.90;;;;;;5039312;28;20488;-82
2022/09/09 11:43:23;;;;;;;7.50;1.98;;;17.50;99.90;;;;;;5044851;28;20064;-82
2022/09/09 11:45:57;;;;;;;10.32;2.97;;;17.40;99.90;;;;;;5047118;28;20582;-80
2022/09/09 11:48:34;;;;;;;7.07;2.63;;;17.70;99.90;;;;;;5045321;28;20043;-80
2022/09/09 11:51:12;;;;;;;6.35;2.50;;;17.60;99.90;;;;;;5040841;28;20049;-80
2022/09/09 11:54:29;;;;;;;9.50;3.15;;;17.60;99.90;;;;;;5036506;28;20103;-80
2022/09/09 11:56:55;;;;;;;10.82;3.55;;;17.50;99.90;;;;;;5044486;28;20063;-81
2022/09/09 11:59:25;;;;;;;13.43;2.97;;;17.40;99.90;;;;;;5055063;28;20037;-82
2022/09/09 12:02:01;;;;;;;9.23;3.70;;;17.50;99.90;;;;;;5044375;28;20053;-81
2022/09/09 12:05:09;;;;;;;8.23;2.00;;;17.70;99.90;;;;;;5036722;28;20068;-81
2022/09/09 12:07:46;;;;;;;4.15;2.20;;;17.90;99.90;;;;;;5040876;28;20064;-81
2022/09/09 12:10:30;;;;;;;10.10;3.17;;;18.30;99.90;;;;;;5045546;28;20052;-78
2022/09/09 12:13:07;;;;;;;11.38;2.42;;;18.30;99.90;;;;;;5026878;28;20072;-80
2022/09/09 12:15:33;;;;;;;5.68;2.08;;;18.30;99.90;;;;;;5042280;28;20084;-78
2022/09/09 12:18:00;;;;;;;7.68;2.25;;;18.50;99.90;;;;;;5041890;28;20069;-78
2022/09/09 12:20:50;;;;;;;6.78;2.58;;;18.70;99.90;;;;;;5045748;28;20095;-80
2022/09/09 12:23:42;;;;;;;8.50;1.90;;;18.60;99.90;;;;;;5044753;28;20051;-79
2022/09/09 12:26:35;;;;;;;6.70;1.70;;;18.70;99.90;;;;;;5042957;28;20049;-80
2022/09/09 12:29:15;;;;;;;7.97;2.40;;;19.00;99.90;;;;;;5044859;28;20036;-81
2022/09/09 12:31:51;;;;;;;7.22;1.70;;;19.20;99.90;;;;;;5043687;28;20156;-80
2022/09/09 12:34:38;;;;;;;7.32;3.22;;;19.00;99.90;;;;;;5043988;28;20075;-80
2022/09/09 12:37:18;;;;;;;14.48;2.40;;;18.90;99.90;;;;;;5033443;28;20045;-78
2022/09/09 12:39:57;;;;;;;3.97;1.10;;;18.90;99.90;;;;;;5032655;28;20048;-78
2022/09/09 12:42:24;;;;;;;7.38;1.90;;;19.00;99.90;;;;;;5025936;28;20111;-79
2022/09/09 12:44:54;;;;;;;6.25;1.38;;;19.10;99.90;;;;;;5026339;28;20261;-78
2022/09/09 12:47:23;;;;;;;5.28;1.95;;;19.10;99.90;;;;;;5045553;28;20053;-78
2022/09/09 12:49:50;;;;;;;8.57;1.70;;;19.00;99.90;;;;;;5043148;28;20116;-78
2022/09/09 12:52:31;;;;;;;8.77;2.03;;;19.00;99.90;;;;;;5045357;28;20044;-78
2022/09/09 12:54:59;;;;;;;7.40;2.15;;;18.90;99.90;;;;;;5059277;28;20049;-78
2022/09/09 12:57:30;;;;;;;11.30;2.55;;;18.80;99.90;;;;;;5044952;28;20462;-79
2022/09/09 13:00:05;;;;;;;5.05;1.60;;;18.90;99.90;;;;;;5062152;28;20040;-80
2022/09/09 13:02:32;;;;;;;11.38;3.58;;;18.90;99.90;;;;;;5050445;28;20040;-79
2022/09/09 13:05:14;;;;;;;5.80;1.67;;;18.80;99.90;;;;;;5043768;28;20044;-82
2022/09/09 13:07:40;;;;;;;5.38;2.10;;;19.00;99.90;;;;;;5048387;28;20049;-81
2022/09/09 13:10:06;;;;;;;9.73;2.30;;;18.90;99.90;;;;;;5046338;28;20112;-83